sensor_id;sensor_type;location;lat;lon;timestamp;temperature;humidity
41668;DHT22;27356;50.920;5.350;2023-05-07T00:01:46;15.60;99.90
41668;DHT22;27356;50.920;5.350;2023-05-07T00:04:11;15.60;99.90
41668;DHT22;27356;50.920;5.350;2023-05-07T00:06:38;15.60;99.90
41668;DHT22;27356;50.920;5.350;2023-05-07T00:09:04;15.50;99.90
41668;DHT22;27356;50.920;5.350;2023-05-07T00:11:30;15.60;99.90
41668;DHT22;27356;50.920;5.350;2023-05-07T00:13:55;15.70;99.90
41668;DHT22;27356;50.920;5.350;2023-05-07T00:16:21;15.70;99.90
41668;DHT22;27356;50.920;5.350;2023-05-07T00:18:47;15.80;99.90
41668;DHT22;27356;50.920;5.350;2023-05-07T00:21:12;15.80;99.90
41668;DHT22;27356;50.920;5.350;2023-05-07T00:23:38;15.90;99.90
41668;DHT22;27356;50.920;5.350;2023-05-07T00:26:04;15.80;99.90
41668;DHT22;27356;50.920;5.350;2023-05-07T00:28:30;15.70;99.90
41668;DHT22;27356;50.920;5.350;2023-05-07T00:30:56;15.80;99.90
41668;DHT22;27356;50.920;5.350;2023-05-07T00:33:21;15.80;99.90
41668;DHT22;27356;50.920;5.350;2023-05-07T00:35:48;15.90;99.90
41668;DHT22;27356;50.920;5.350;2023-05-07T00:38:14;15.90;99.90
41668;DHT22;27356;50.920;5.350;2023-05-07T00:40:39;15.90;99.90
41668;DHT22;27356;50.920;5.350;2023-05-07T00:43:06;15.80;99.90
41668;DHT22;27356;50.920;5.350;2023-05-07T00:45:33;15.90;99.90
41668;DHT22;27356;50.920;5.350;2023-05-07T00:48:00;15.80;99.90
41668;DHT22;27356;50.920;5.350;2023-05-07T00:50:26;15.80;99.90
41668;DHT22;27356;50.920;5.350;2023-05-07T00:52:53;15.80;99.90
41668;DHT22;27356;50.920;5.350;2023-05-07T00:55:19;15.70;99.90
41668;DHT22;27356;50.920;5.350;2023-05-07T00:57:45;15.70;99.90
41668;DHT22;27356;50.920;5.350;2023-05-07T01:00:12;15.60;99.90
41668;DHT22;27356;50.920;5.350;2023-05-07T01:02:41;15.60;99.90
41668;DHT22;27356;50.920;5.350;2023-05-07T01:05:09;15.70;99.90
41668;DHT22;27356;50.920;5.350;2023-05-07T01:07:36;15.60;99.90
41668;DHT22;27356;50.920;5.350;2023-05-07T01:10:03;15.70;99.90
41668;DHT22;27356;50.920;5.350;2023-05-07T01:12:30;15.70;99.90
41668;DHT22;27356;50.920;5.350;2023-05-07T01:14:57;15.70;99.90
41668;DHT22;27356;50.920;5.350;2023-05-07T01:17:23;15.70;99.90
41668;DHT22;27356;50.920;5.350;2023-05-07T01:19:49;15.60;99.90
41668;DHT22;27356;50.920;5.350;2023-05-07T01:22:16;15.60;99.90
41668;DHT22;27356;50.920;5.350;2023-05-07T01:24:44;15.60;99.90
41668;DHT22;27356;50.920;5.350;2023-05-07T01:27:09;15.60;99.90
41668;DHT22;27356;50.920;5.350;2023-05-07T01:29:35;15.50;99.90
41668;DHT22;27356;50.920;5.350;2023-05-07T01:32:01;15.50;99.90
41668;DHT22;27356;50.920;5.350;2023-05-07T01:34:31;15.50;99.90
41668;DHT22;27356;50.920;5.350;2023-05-07T01:36:59;15.40;99.90
41668;DHT22;27356;50.920;5.350;2023-05-07T01:39:26;15.30;99.90
41668;DHT22;27356;50.920;5.350;2023-05-07T01:41:55;15.40;99.90
41668;DHT22;27356;50.920;5.350;2023-05-07T01:44:22;15.50;99.90
41668;DHT22;27356;50.920;5.350;2023-05-07T01:46:48;15.50;99.90
41668;DHT22;27356;50.920;5.350;2023-05-07T01:49:15;15.50;99.90
41668;DHT22;27356;50.920;5.350;2023-05-07T01:51:41;15.40;99.90
41668;DHT22;27356;50.920;5.350;2023-05-07T01:54:07;15.40;99.90
41668;DHT22;27356;50.920;5.350;2023-05-07T01:56:33;15.40;99.90
41668;DHT22;27356;50.920;5.350;2023-05-07T01:58:59;15.30;99.90
41668;DHT22;27356;50.920;5.350;2023-05-07T02:01:25;15.40;99.90
41668;DHT22;27356;50.920;5.350;2023-05-07T02:03:51;15.30;99.90
41668;DHT22;27356;50.920;5.350;2023-05-07T02:06:17;15.30;99.90
41668;DHT22;27356;50.920;5.350;2023-05-07T02:08:43;15.30;99.90
41668;DHT22;27356;50.920;5.350;2023-05-07T02:11:08;15.40;99.90
41668;DHT22;27356;50.920;5.350;2023-05-07T02:13:34;15.40;99.90
41668;DHT22;27356;50.920;5.350;2023-05-07T02:16:00;15.40;99.90
41668;DHT22;27356;50.920;5.350;2023-05-07T02:18:26;15.40;99.90
41668;DHT22;27356;50.920;5.350;2023-05-07T02:20:52;15.40;99.90
41668;DHT22;27356;50.920;5.350;2023-05-07T02:23:17;15.40;99.90
41668;DHT22;27356;50.920;5.350;2023-05-07T02:25:43;15.40;99.90
41668;DHT22;27356;50.920;5.350;2023-05-07T02:28:09;15.40;99.90
41668;DHT22;27356;50.920;5.350;2023-05-07T02:30:35;15.30;99.90
41668;DHT22;27356;50.920;5.350;2023-05-07T02:33:00;15.30;99.90
41668;DHT22;27356;50.920;5.350;2023-05-07T02:35:26;15.40;99.90
41668;DHT22;27356;50.920;5.350;2023-05-07T02:37:52;15.40;99.90
41668;DHT22;27356;50.920;5.350;2023-05-07T02:40:17;15.50;99.90
41668;DHT22;27356;50.920;5.350;2023-05-07T02:42:43;15.50;99.90
41668;DHT22;27356;50.920;5.350;2023-05-07T02:45:09;15.50;99.90
41668;DHT22;27356;50.920;5.350;2023-05-07T02:47:35;15.50;99.90
41668;DHT22;27356;50.920;5.350;2023-05-07T02:50:01;15.40;99.90
41668;DHT22;27356;50.920;5.350;2023-05-07T02:52:26;15.40;99.90
41668;DHT22;27356;50.920;5.350;2023-05-07T02:54:52;15.40;99.90
41668;DHT22;27356;50.920;5.350;2023-05-07T02:57:18;15.30;99.90
41668;DHT22;27356;50.920;5.350;2023-05-07T02:59:43;15.30;99.90
41668;DHT22;27356;50.920;5.350;2023-05-07T03:02:09;15.30;99.90
41668;DHT22;27356;50.920;5.350;2023-05-07T03:04:35;15.30;99.90
41668;DHT22;27356;50.920;5.350;2023-05-07T03:07:01;15.40;99.90
41668;DHT22;27356;50.920;5.350;2023-05-07T03:09:26;15.40;99.90
41668;DHT22;27356;50.920;5.350;2023-05-07T03:11:52;15.20;99.90
41668;DHT22;27356;50.920;5.350;2023-05-07T03:14:18;15.10;99.90
41668;DHT22;27356;50.920;5.350;2023-05-07T03:16:43;14.90;99.90
41668;DHT22;27356;50.920;5.350;2023-05-07T03:19:09;14.90;99.90
41668;DHT22;27356;50.920;5.350;2023-05-07T03:21:35;15.00;99.90
41668;DHT22;27356;50.920;5.350;2023-05-07T03:24:00;14.90;99.90
41668;DHT22;27356;50.920;5.350;2023-05-07T03:26:26;14.90;99.90
41668;DHT22;27356;50.920;5.350;2023-05-07T03:28:52;15.00;99.90
41668;DHT22;27356;50.920;5.350;2023-05-07T03:31:18;15.10;99.90
41668;DHT22;27356;50.920;5.350;2023-05-07T03:33:54;15.20;99.90
41668;DHT22;27356;50.920;5.350;2023-05-07T03:36:21;15.10;99.90
41668;DHT22;27356;50.920;5.350;2023-05-07T03:38:47;15.00;99.90
41668;DHT22;27356;50.920;5.350;2023-05-07T03:41:13;15.00;99.90
41668;DHT22;27356;50.920;5.350;2023-05-07T03:43:39;14.90;99.90
41668;DHT22;27356;50.920;5.350;2023-05-07T03:46:05;14.90;99.90
41668;DHT22;27356;50.920;5.350;2023-05-07T03:48:30;15.00;99.90
41668;DHT22;27356;50.920;5.350;2023-05-07T03:50:57;15.00;99.90
41668;DHT22;27356;50.920;5.350;2023-05-07T03:53:23;15.00;99.90
41668;DHT22;27356;50.920;5.350;2023-05-07T03:55:49;15.00;99.90
41668;DHT22;27356;50.920;5.350;2023-05-07T03:58:15;15.00;99.90
41668;DHT22;27356;50.920;5.350;2023-05-07T04:00:41;15.00;99.90
41668;DHT22;27356;50.920;5.350;2023-05-07T04:03:07;15.00;99.90
41668;DHT22;27356;50.920;5.350;2023-05-07T04:05:32;15.10;99.90
41668;DHT22;27356;50.920;5.350;2023-05-07T04:07:58;15.10;99.90
41668;DHT22;27356;50.920;5.350;2023-05-07T04:10:25;15.10;99.90
41668;DHT22;27356;50.920;5.350;2023-05-07T04:12:50;15.10;99.90
41668;DHT22;27356;50.920;5.350;2023-05-07T04:15:16;15.10;99.90
41668;DHT22;27356;50.920;5.350;2023-05-07T04:17:42;15.20;99.90
41668;DHT22;27356;50.920;5.350;2023-05-07T04:20:16;15.20;99.90
41668;DHT22;27356;50.920;5.350;2023-05-07T04:22:42;15.30;99.90
41668;DHT22;27356;50.920;5.350;2023-05-07T04:25:08;15.30;99.90
41668;DHT22;27356;50.920;5.350;2023-05-07T04:27:36;15.40;99.90
41668;DHT22;27356;50.920;5.350;2023-05-07T04:30:03;15.40;99.90
41668;DHT22;27356;50.920;5.350;2023-05-07T04:32:29;15.50;99.90
41668;DHT22;27356;50.920;5.350;2023-05-07T04:34:56;15.40;99.90
41668;DHT22;27356;50.920;5.350;2023-05-07T04:37:22;15.30;99.90
41668;DHT22;27356;50.920;5.350;2023-05-07T04:39:48;15.30;99.90
41668;DHT22;27356;50.920;5.350;2023-05-07T04:42:17;15.40;99.90
41668;DHT22;27356;50.920;5.350;2023-05-07T04:44:44;15.50;99.90
41668;DHT22;27356;50.920;5.350;2023-05-07T04:47:10;15.50;99.90
41668;DHT22;27356;50.920;5.350;2023-05-07T04:49:37;15.50;99.90
41668;DHT22;27356;50.920;5.350;2023-05-07T04:52:04;15.50;99.90
41668;DHT22;27356;50.920;5.350;2023-05-07T04:54:29;15.50;99.90
41668;DHT22;27356;50.920;5.350;2023-05-07T04:56:55;15.70;99.90
41668;DHT22;27356;50.920;5.350;2023-05-07T04:59:21;15.60;99.90
41668;DHT22;27356;50.920;5.350;2023-05-07T05:01:47;15.60;99.90
41668;DHT22;27356;50.920;5.350;2023-05-07T05:04:13;15.60;99.90
41668;DHT22;27356;50.920;5.350;2023-05-07T05:06:39;15.70;99.90
41668;DHT22;27356;50.920;5.350;2023-05-07T05:09:04;15.80;99.90
41668;DHT22;27356;50.920;5.350;2023-05-07T05:11:31;15.90;99.90
41668;DHT22;27356;50.920;5.350;2023-05-07T05:13:56;16.00;99.90
41668;DHT22;27356;50.920;5.350;2023-05-07T05:16:22;16.00;99.90
41668;DHT22;27356;50.920;5.350;2023-05-07T05:18:48;16.10;99.90
41668;DHT22;27356;50.920;5.350;2023-05-07T05:21:17;16.20;99.90
41668;DHT22;27356;50.920;5.350;2023-05-07T05:23:43;16.30;99.90
41668;DHT22;27356;50.920;5.350;2023-05-07T05:26:09;16.30;99.90
41668;DHT22;27356;50.920;5.350;2023-05-07T05:28:34;16.30;99.90
41668;DHT22;27356;50.920;5.350;2023-05-07T05:31:00;16.40;99.90
41668;DHT22;27356;50.920;5.350;2023-05-07T05:33:26;16.60;99.90
41668;DHT22;27356;50.920;5.350;2023-05-07T05:35:53;16.70;99.90
41668;DHT22;27356;50.920;5.350;2023-05-07T05:38:18;16.80;99.90
41668;DHT22;27356;50.920;5.350;2023-05-07T05:40:44;16.90;99.90
41668;DHT22;27356;50.920;5.350;2023-05-07T05:43:10;16.90;99.90
41668;DHT22;27356;50.920;5.350;2023-05-07T05:45:35;16.90;99.90
41668;DHT22;27356;50.920;5.350;2023-05-07T05:48:01;17.10;99.90
41668;DHT22;27356;50.920;5.350;2023-05-07T05:50:27;17.40;99.90
41668;DHT22;27356;50.920;5.350;2023-05-07T05:52:52;17.70;99.90
41668;DHT22;27356;50.920;5.350;2023-05-07T05:55:18;18.10;99.90
41668;DHT22;27356;50.920;5.350;2023-05-07T05:57:44;18.80;99.90
41668;DHT22;27356;50.920;5.350;2023-05-07T06:00:10;19.40;99.90
41668;DHT22;27356;50.920;5.350;2023-05-07T06:02:36;19.70;99.90
41668;DHT22;27356;50.920;5.350;2023-05-07T06:05:02;20.00;99.90
41668;DHT22;27356;50.920;5.350;2023-05-07T06:07:28;20.00;99.90
41668;DHT22;27356;50.920;5.350;2023-05-07T06:09:54;19.90;99.90
41668;DHT22;27356;50.920;5.350;2023-05-07T06:12:21;19.90;99.90
41668;DHT22;27356;50.920;5.350;2023-05-07T06:14:46;19.80;99.90
41668;DHT22;27356;50.920;5.350;2023-05-07T06:17:12;19.70;99.90
41668;DHT22;27356;50.920;5.350;2023-05-07T06:19:38;19.70;99.90
41668;DHT22;27356;50.920;5.350;2023-05-07T06:22:04;19.80;99.90
41668;DHT22;27356;50.920;5.350;2023-05-07T06:24:29;19.90;99.90
41668;DHT22;27356;50.920;5.350;2023-05-07T06:26:55;19.80;99.90
41668;DHT22;27356;50.920;5.350;2023-05-07T06:29:21;19.80;99.90
41668;DHT22;27356;50.920;5.350;2023-05-07T06:31:46;19.60;99.90
41668;DHT22;27356;50.920;5.350;2023-05-07T06:34:12;19.80;99.90
41668;DHT22;27356;50.920;5.350;2023-05-07T06:36:41;20.00;99.90
41668;DHT22;27356;50.920;5.350;2023-05-07T06:39:06;20.10;99.90
41668;DHT22;27356;50.920;5.350;2023-05-07T06:41:32;20.20;99.90
41668;DHT22;27356;50.920;5.350;2023-05-07T06:43:58;20.60;99.90
41668;DHT22;27356;50.920;5.350;2023-05-07T06:46:23;20.90;99.90
41668;DHT22;27356;50.920;5.350;2023-05-07T06:48:49;21.10;99.90
41668;DHT22;27356;50.920;5.350;2023-05-07T06:51:15;21.20;99.90
41668;DHT22;27356;50.920;5.350;2023-05-07T06:53:40;20.80;99.90
41668;DHT22;27356;50.920;5.350;2023-05-07T06:56:06;20.60;99.90
41668;DHT22;27356;50.920;5.350;2023-05-07T06:58:32;20.40;99.90
41668;DHT22;27356;50.920;5.350;2023-05-07T07:00:58;20.60;99.90
41668;DHT22;27356;50.920;5.350;2023-05-07T07:03:24;20.30;99.90
41668;DHT22;27356;50.920;5.350;2023-05-07T07:05:53;20.40;99.90
41668;DHT22;27356;50.920;5.350;2023-05-07T07:08:19;20.20;99.90
41668;DHT22;27356;50.920;5.350;2023-05-07T07:10:47;20.00;99.90
41668;DHT22;27356;50.920;5.350;2023-05-07T07:13:13;20.00;99.90
41668;DHT22;27356;50.920;5.350;2023-05-07T07:15:38;20.20;99.90
41668;DHT22;27356;50.920;5.350;2023-05-07T07:18:04;20.50;99.90
41668;DHT22;27356;50.920;5.350;2023-05-07T07:20:30;20.70;99.90
41668;DHT22;27356;50.920;5.350;2023-05-07T07:22:56;21.10;99.90
41668;DHT22;27356;50.920;5.350;2023-05-07T07:25:21;21.50;99.90
41668;DHT22;27356;50.920;5.350;2023-05-07T07:27:47;21.20;99.90
41668;DHT22;27356;50.920;5.350;2023-05-07T07:30:13;21.30;99.90
41668;DHT22;27356;50.920;5.350;2023-05-07T07:32:38;21.10;99.90
41668;DHT22;27356;50.920;5.350;2023-05-07T07:35:04;21.50;99.90
41668;DHT22;27356;50.920;5.350;2023-05-07T07:37:30;21.60;99.90
41668;DHT22;27356;50.920;5.350;2023-05-07T07:39:56;21.60;99.90
41668;DHT22;27356;50.920;5.350;2023-05-07T07:42:22;21.40;99.90
41668;DHT22;27356;50.920;5.350;2023-05-07T07:44:48;21.50;99.90
41668;DHT22;27356;50.920;5.350;2023-05-07T07:47:13;21.70;99.90
41668;DHT22;27356;50.920;5.350;2023-05-07T07:49:39;21.90;99.90
41668;DHT22;27356;50.920;5.350;2023-05-07T07:52:05;22.20;99.90
41668;DHT22;27356;50.920;5.350;2023-05-07T07:54:31;22.30;99.90
41668;DHT22;27356;50.920;5.350;2023-05-07T07:56:56;21.80;99.80
41668;DHT22;27356;50.920;5.350;2023-05-07T07:59:22;22.10;99.80
41668;DHT22;27356;50.920;5.350;2023-05-07T08:01:48;22.40;99.10
41668;DHT22;27356;50.920;5.350;2023-05-07T08:04:15;22.30;99.50
41668;DHT22;27356;50.920;5.350;2023-05-07T08:06:41;22.50;99.40
41668;DHT22;27356;50.920;5.350;2023-05-07T08:09:07;22.90;99.30
41668;DHT22;27356;50.920;5.350;2023-05-07T08:11:33;23.40;98.40
41668;DHT22;27356;50.920;5.350;2023-05-07T08:13:59;23.70;97.80
41668;DHT22;27356;50.920;5.350;2023-05-07T08:16:25;23.90;97.40
41668;DHT22;27356;50.920;5.350;2023-05-07T08:18:51;24.40;97.00
41668;DHT22;27356;50.920;5.350;2023-05-07T08:21:17;24.70;96.60
41668;DHT22;27356;50.920;5.350;2023-05-07T08:23:42;24.80;95.30
41668;DHT22;27356;50.920;5.350;2023-05-07T08:26:08;24.40;95.70
41668;DHT22;27356;50.920;5.350;2023-05-07T08:28:34;24.60;95.90
41668;DHT22;27356;50.920;5.350;2023-05-07T08:31:00;24.90;95.60
41668;DHT22;27356;50.920;5.350;2023-05-07T08:33:26;25.10;95.20
41668;DHT22;27356;50.920;5.350;2023-05-07T08:35:52;25.00;95.30
41668;DHT22;27356;50.920;5.350;2023-05-07T08:38:18;25.20;94.90
41668;DHT22;27356;50.920;5.350;2023-05-07T08:40:43;24.80;95.30
41668;DHT22;27356;50.920;5.350;2023-05-07T08:43:12;24.90;95.20
41668;DHT22;27356;50.920;5.350;2023-05-07T08:45:39;25.20;94.90
41668;DHT22;27356;50.920;5.350;2023-05-07T08:48:15;25.00;95.00
41668;DHT22;27356;50.920;5.350;2023-05-07T08:50:41;25.00;94.80
41668;DHT22;27356;50.920;5.350;2023-05-07T08:53:07;24.70;95.80
41668;DHT22;27356;50.920;5.350;2023-05-07T08:55:32;24.30;96.30
41668;DHT22;27356;50.920;5.350;2023-05-07T08:57:59;25.10;96.00
41668;DHT22;27356;50.920;5.350;2023-05-07T09:00:30;25.80;95.40
41668;DHT22;27356;50.920;5.350;2023-05-07T09:02:56;26.70;94.20
41668;DHT22;27356;50.920;5.350;2023-05-07T09:05:22;27.60;93.20
41668;DHT22;27356;50.920;5.350;2023-05-07T09:07:47;28.40;91.50
41668;DHT22;27356;50.920;5.350;2023-05-07T09:10:13;29.00;90.80
41668;DHT22;27356;50.920;5.350;2023-05-07T09:12:39;29.10;88.20
41668;DHT22;27356;50.920;5.350;2023-05-07T09:15:05;29.30;87.70
41668;DHT22;27356;50.920;5.350;2023-05-07T09:17:32;29.30;88.40
41668;DHT22;27356;50.920;5.350;2023-05-07T09:20:03;28.90;88.90
41668;DHT22;27356;50.920;5.350;2023-05-07T09:22:32;28.80;87.80
41668;DHT22;27356;50.920;5.350;2023-05-07T09:24:58;28.30;89.90
41668;DHT22;27356;50.920;5.350;2023-05-07T09:27:25;28.30;88.80
41668;DHT22;27356;50.920;5.350;2023-05-07T09:29:51;27.50;90.00
41668;DHT22;27356;50.920;5.350;2023-05-07T09:32:16;27.60;90.10
41668;DHT22;27356;50.920;5.350;2023-05-07T09:34:42;28.70;89.50
41668;DHT22;27356;50.920;5.350;2023-05-07T09:37:08;28.70;89.20
41668;DHT22;27356;50.920;5.350;2023-05-07T09:39:44;29.00;88.80
41668;DHT22;27356;50.920;5.350;2023-05-07T09:42:10;29.10;88.70
41668;DHT22;27356;50.920;5.350;2023-05-07T09:44:37;29.30;88.00
41668;DHT22;27356;50.920;5.350;2023-05-07T09:47:07;28.80;88.10
41668;DHT22;27356;50.920;5.350;2023-05-07T09:49:36;28.80;87.90
41668;DHT22;27356;50.920;5.350;2023-05-07T09:52:05;28.80;87.30
41668;DHT22;27356;50.920;5.350;2023-05-07T09:54:37;28.60;86.80
41668;DHT22;27356;50.920;5.350;2023-05-07T09:57:06;28.80;87.30
41668;DHT22;27356;50.920;5.350;2023-05-07T09:59:33;28.40;87.10
41668;DHT22;27356;50.920;5.350;2023-05-07T10:02:00;28.40;87.40
41668;DHT22;27356;50.920;5.350;2023-05-07T10:04:27;28.50;86.30
41668;DHT22;27356;50.920;5.350;2023-05-07T10:06:53;27.80;87.50
41668;DHT22;27356;50.920;5.350;2023-05-07T10:09:21;27.50;88.80
41668;DHT22;27356;50.920;5.350;2023-05-07T10:11:48;27.30;88.30
41668;DHT22;27356;50.920;5.350;2023-05-07T10:14:14;27.50;88.90
41668;DHT22;27356;50.920;5.350;2023-05-07T10:16:41;27.30;89.00
41668;DHT22;27356;50.920;5.350;2023-05-07T10:19:08;27.10;89.40
41668;DHT22;27356;50.920;5.350;2023-05-07T10:21:39;26.80;89.70
41668;DHT22;27356;50.920;5.350;2023-05-07T10:24:22;26.70;90.10
41668;DHT22;27356;50.920;5.350;2023-05-07T10:26:52;26.10;90.60
41668;DHT22;27356;50.920;5.350;2023-05-07T10:31:58;26.20;91.10
41668;DHT22;27356;50.920;5.350;2023-05-07T10:34:32;25.90;92.00
41668;DHT22;27356;50.920;5.350;2023-05-07T10:36:59;25.60;92.00
41668;DHT22;27356;50.920;5.350;2023-05-07T10:39:25;25.50;92.10
41668;DHT22;27356;50.920;5.350;2023-05-07T10:41:51;25.50;92.40
41668;DHT22;27356;50.920;5.350;2023-05-07T10:44:27;25.50;92.30
41668;DHT22;27356;50.920;5.350;2023-05-07T10:47:11;25.30;92.10
41668;DHT22;27356;50.920;5.350;2023-05-07T10:52:23;25.30;92.40
41668;DHT22;27356;50.920;5.350;2023-05-07T10:57:44;25.40;92.40
41668;DHT22;27356;50.920;5.350;2023-05-07T11:05:30;25.20;93.00
41668;DHT22;27356;50.920;5.350;2023-05-07T11:08:00;25.00;93.50
41668;DHT22;27356;50.920;5.350;2023-05-07T11:13:14;24.80;94.50
41668;DHT22;27356;50.920;5.350;2023-05-07T11:15:42;24.80;95.00
41668;DHT22;27356;50.920;5.350;2023-05-07T11:18:10;24.70;95.30
41668;DHT22;27356;50.920;5.350;2023-05-07T11:20:50;24.60;96.60
41668;DHT22;27356;50.920;5.350;2023-05-07T11:26:04;23.80;98.60
41668;DHT22;27356;50.920;5.350;2023-05-07T11:28:31;23.80;98.20
41668;DHT22;27356;50.920;5.350;2023-05-07T11:31:02;23.70;98.10
41668;DHT22;27356;50.920;5.350;2023-05-07T11:33:30;23.90;98.10
41668;DHT22;27356;50.920;5.350;2023-05-07T11:35:56;23.50;99.70
41668;DHT22;27356;50.920;5.350;2023-05-07T11:38:22;23.60;99.50
41668;DHT22;27356;50.920;5.350;2023-05-07T11:40:52;23.60;99.60
41668;DHT22;27356;50.920;5.350;2023-05-07T11:43:19;23.70;99.90
41668;DHT22;27356;50.920;5.350;2023-05-07T11:45:45;23.70;99.10
41668;DHT22;27356;50.920;5.350;2023-05-07T11:48:12;23.60;99.30
41668;DHT22;27356;50.920;5.350;2023-05-07T11:50:52;23.50;99.10
41668;DHT22;27356;50.920;5.350;2023-05-07T11:53:19;23.30;99.90
41668;DHT22;27356;50.920;5.350;2023-05-07T11:55:45;23.20;99.90
41668;DHT22;27356;50.920;5.350;2023-05-07T11:58:12;23.10;99.90
41668;DHT22;27356;50.920;5.350;2023-05-07T12:00:38;23.10;99.90
41668;DHT22;27356;50.920;5.350;2023-05-07T12:03:04;23.00;99.90
41668;DHT22;27356;50.920;5.350;2023-05-07T12:05:30;23.00;99.90
41668;DHT22;27356;50.920;5.350;2023-05-07T12:07:59;23.10;99.90
41668;DHT22;27356;50.920;5.350;2023-05-07T12:10:25;23.20;99.90
41668;DHT22;27356;50.920;5.350;2023-05-07T12:12:51;23.30;99.90
41668;DHT22;27356;50.920;5.350;2023-05-07T12:15:17;23.10;99.90
41668;DHT22;27356;50.920;5.350;2023-05-07T12:17:43;23.30;99.90
41668;DHT22;27356;50.920;5.350;2023-05-07T12:20:09;23.20;99.90
41668;DHT22;27356;50.920;5.350;2023-05-07T12:22:36;23.20;99.90
41668;DHT22;27356;50.920;5.350;2023-05-07T12:25:02;23.20;99.90
41668;DHT22;27356;50.920;5.350;2023-05-07T12:27:28;23.10;99.90
41668;DHT22;27356;50.920;5.350;2023-05-07T12:29:54;23.10;99.90
41668;DHT22;27356;50.920;5.350;2023-05-07T12:32:21;23.10;99.90
41668;DHT22;27356;50.920;5.350;2023-05-07T12:34:50;23.00;99.90
41668;DHT22;27356;50.920;5.350;2023-05-07T12:37:16;23.10;99.90
41668;DHT22;27356;50.920;5.350;2023-05-07T12:39:48;23.20;99.90
41668;DHT22;27356;50.920;5.350;2023-05-07T12:42:19;23.30;99.90
41668;DHT22;27356;50.920;5.350;2023-05-07T12:44:48;23.30;99.90
41668;DHT22;27356;50.920;5.350;2023-05-07T12:47:15;23.50;99.90
41668;DHT22;27356;50.920;5.350;2023-05-07T12:49:41;23.60;99.90
41668;DHT22;27356;50.920;5.350;2023-05-07T12:52:07;24.00;99.50
41668;DHT22;27356;50.920;5.350;2023-05-07T12:54:36;23.90;99.30
41668;DHT22;27356;50.920;5.350;2023-05-07T12:57:09;23.90;99.90
41668;DHT22;27356;50.920;5.350;2023-05-07T12:59:41;24.30;99.50
41668;DHT22;27356;50.920;5.350;2023-05-07T13:02:08;24.00;99.40
41668;DHT22;27356;50.920;5.350;2023-05-07T13:04:34;24.10;99.40
41668;DHT22;27356;50.920;5.350;2023-05-07T13:07:00;24.30;99.00
41668;DHT22;27356;50.920;5.350;2023-05-07T13:09:26;24.30;98.00
41668;DHT22;27356;50.920;5.350;2023-05-07T13:11:54;24.10;98.70
41668;DHT22;27356;50.920;5.350;2023-05-07T13:14:20;24.30;98.30
41668;DHT22;27356;50.920;5.350;2023-05-07T13:16:47;24.10;98.90
41668;DHT22;27356;50.920;5.350;2023-05-07T13:19:13;24.50;98.50
41668;DHT22;27356;50.920;5.350;2023-05-07T13:21:38;24.60;98.30
41668;DHT22;27356;50.920;5.350;2023-05-07T13:24:04;24.60;97.90
41668;DHT22;27356;50.920;5.350;2023-05-07T13:26:31;24.60;97.70
41668;DHT22;27356;50.920;5.350;2023-05-07T13:28:57;24.40;97.80
41668;DHT22;27356;50.920;5.350;2023-05-07T13:31:23;24.20;98.60
41668;DHT22;27356;50.920;5.350;2023-05-07T13:33:49;24.10;98.00
41668;DHT22;27356;50.920;5.350;2023-05-07T13:36:15;24.40;97.70
41668;DHT22;27356;50.920;5.350;2023-05-07T13:38:40;24.20;98.20
41668;DHT22;27356;50.920;5.350;2023-05-07T13:41:06;24.50;97.50
41668;DHT22;27356;50.920;5.350;2023-05-07T13:43:32;24.50;96.50
41668;DHT22;27356;50.920;5.350;2023-05-07T13:45:59;24.60;96.80
41668;DHT22;27356;50.920;5.350;2023-05-07T13:48:25;24.90;95.90
41668;DHT22;27356;50.920;5.350;2023-05-07T13:50:50;24.60;97.00
41668;DHT22;27356;50.920;5.350;2023-05-07T13:53:17;24.60;96.80
41668;DHT22;27356;50.920;5.350;2023-05-07T13:55:44;24.50;97.20
41668;DHT22;27356;50.920;5.350;2023-05-07T13:58:09;24.70;96.20
41668;DHT22;27356;50.920;5.350;2023-05-07T14:00:35;24.20;97.20
41668;DHT22;27356;50.920;5.350;2023-05-07T14:03:01;24.30;97.00
41668;DHT22;27356;50.920;5.350;2023-05-07T14:05:27;24.30;97.20
41668;DHT22;27356;50.920;5.350;2023-05-07T14:07:57;24.50;96.70
41668;DHT22;27356;50.920;5.350;2023-05-07T14:10:23;24.50;97.20
41668;DHT22;27356;50.920;5.350;2023-05-07T14:12:49;24.60;96.80
41668;DHT22;27356;50.920;5.350;2023-05-07T14:15:15;24.40;97.20
41668;DHT22;27356;50.920;5.350;2023-05-07T14:17:41;24.60;96.50
41668;DHT22;27356;50.920;5.350;2023-05-07T14:20:08;24.50;96.30
41668;DHT22;27356;50.920;5.350;2023-05-07T14:22:34;24.60;96.20
41668;DHT22;27356;50.920;5.350;2023-05-07T14:24:59;24.60;96.40
41668;DHT22;27356;50.920;5.350;2023-05-07T14:27:25;24.70;96.10
41668;DHT22;27356;50.920;5.350;2023-05-07T14:29:51;24.60;95.80
41668;DHT22;27356;50.920;5.350;2023-05-07T14:32:17;24.70;96.00
41668;DHT22;27356;50.920;5.350;2023-05-07T14:34:44;24.60;96.40
41668;DHT22;27356;50.920;5.350;2023-05-07T14:37:10;24.80;95.90
41668;DHT22;27356;50.920;5.350;2023-05-07T14:39:36;25.00;95.60
41668;DHT22;27356;50.920;5.350;2023-05-07T14:42:01;25.00;95.40
41668;DHT22;27356;50.920;5.350;2023-05-07T14:44:27;24.80;95.60
41668;DHT22;27356;50.920;5.350;2023-05-07T14:46:53;24.80;95.70
41668;DHT22;27356;50.920;5.350;2023-05-07T14:49:19;24.40;96.40
41668;DHT22;27356;50.920;5.350;2023-05-07T14:51:46;24.40;97.00
41668;DHT22;27356;50.920;5.350;2023-05-07T14:54:12;24.50;96.60
41668;DHT22;27356;50.920;5.350;2023-05-07T14:56:38;24.30;96.50
41668;DHT22;27356;50.920;5.350;2023-05-07T14:59:04;24.30;96.20
41668;DHT22;27356;50.920;5.350;2023-05-07T15:01:30;24.20;95.90
41668;DHT22;27356;50.920;5.350;2023-05-07T15:03:56;24.40;95.80
41668;DHT22;27356;50.920;5.350;2023-05-07T15:06:22;24.50;96.00
41668;DHT22;27356;50.920;5.350;2023-05-07T15:08:47;24.50;95.90
41668;DHT22;27356;50.920;5.350;2023-05-07T15:11:16;24.30;96.10
41668;DHT22;27356;50.920;5.350;2023-05-07T15:13:45;24.20;96.60
41668;DHT22;27356;50.920;5.350;2023-05-07T15:16:13;24.40;96.40
41668;DHT22;27356;50.920;5.350;2023-05-07T15:18:39;24.40;96.40
41668;DHT22;27356;50.920;5.350;2023-05-07T15:21:05;24.40;96.70
41668;DHT22;27356;50.920;5.350;2023-05-07T15:23:31;24.20;96.80
41668;DHT22;27356;50.920;5.350;2023-05-07T15:25:57;24.00;96.50
41668;DHT22;27356;50.920;5.350;2023-05-07T15:28:24;24.20;96.10
41668;DHT22;27356;50.920;5.350;2023-05-07T15:30:50;24.30;95.20
41668;DHT22;27356;50.920;5.350;2023-05-07T15:33:16;24.30;95.50
41668;DHT22;27356;50.920;5.350;2023-05-07T15:35:42;24.40;95.60
41668;DHT22;27356;50.920;5.350;2023-05-07T15:38:07;24.20;95.90
41668;DHT22;27356;50.920;5.350;2023-05-07T15:40:34;23.60;96.30
41668;DHT22;27356;50.920;5.350;2023-05-07T15:43:00;23.90;96.60
41668;DHT22;27356;50.920;5.350;2023-05-07T15:45:26;24.00;96.00